Time;durP1;ratioP1;P1;durP2;ratioP2;P2;SDS_P1;SDS_P2;PMS_P1;PMS_P2;Temp;Humidity;BMP_temperature;BMP_pressure;BME280_temperature;BME280_humidity;BME280_pressure;Samples;Min_cycle;Max_cycle;Signal;HPM_P1;HPM_P2
2021/05/12 00:01:45;;;;;;;17.70;13.45;;;14.60;99.90;;;;;;5050322;28;20503;-72
2021/05/12 00:04:11;;;;;;;16.13;13.00;;;14.60;99.90;;;;;;5050493;28;20052;-72
2021/05/12 00:06:36;;;;;;;16.35;13.52;;;14.50;99.90;;;;;;5049210;28;20028;-72
2021/05/12 00:09:02;;;;;;;16.52;12.95;;;14.50;99.90;;;;;;5050668;28;20039;-71
2021/05/12 00:11:28;;;;;;;16.42;12.43;;;14.40;99.90;;;;;;5050393;28;20056;-72
2021/05/12 00:13:53;;;;;;;18.65;13.80;;;14.50;99.90;;;;;;5050559;28;20048;-72
2021/05/12 00:16:19;;;;;;;18.95;14.35;;;14.50;99.90;;;;;;5050514;28;20073;-72
2021/05/12 00:18:46;;;;;;;17.17;13.60;;;14.60;99.90;;;;;;5050448;28;20353;-72
2021/05/12 00:21:22;;;;;;;30.65;14.10;;;14.60;99.90;;;;;;5050310;28;20018;-72
2021/05/12 00:23:59;;;;;;;16.55;12.52;;;14.60;99.90;;;;;;5050740;28;20129;-71
2021/05/12 00:26:36;;;;;;;17.45;11.30;;;14.70;99.90;;;;;;5049293;28;20017;-72
2021/05/12 00:29:04;;;;;;;12.75;9.80;;;14.70;99.90;;;;;;5050322;28;20021;-71
2021/05/12 00:31:30;;;;;;;8.40;4.93;;;14.70;99.90;;;;;;5050269;28;20410;-70
2021/05/12 00:33:55;;;;;;;9.02;5.55;;;14.60;99.90;;;;;;5050603;28;20075;-73
2021/05/12 00:36:21;;;;;;;8.57;4.25;;;14.60;99.90;;;;;;5049241;28;20021;-72
2021/05/12 00:38:46;;;;;;;7.32;3.92;;;14.60;99.90;;;;;;5050526;28;20051;-72
2021/05/12 00:41:12;;;;;;;5.55;2.53;;;14.60;99.90;;;;;;5050345;28;20086;-72
2021/05/12 00:43:37;;;;;;;3.22;1.73;;;14.60;99.90;;;;;;5050230;28;20024;-72
2021/05/12 00:46:03;;;;;;;6.38;2.65;;;14.60;99.90;;;;;;5050460;28;20468;-72
2021/05/12 00:48:28;;;;;;;3.75;2.03;;;14.60;99.90;;;;;;5050308;28;20033;-72
2021/05/12 00:50:54;;;;;;;3.58;1.73;;;14.60;99.90;;;;;;5050256;28;20029;-72
2021/05/12 00:53:19;;;;;;;4.57;1.40;;;14.60;99.90;;;;;;5050127;28;20630;-72
2021/05/12 00:55:45;;;;;;;7.20;2.15;;;14.50;99.90;;;;;;5050307;28;20032;-72
2021/05/12 00:58:11;;;;;;;4.18;1.80;;;14.50;99.90;;;;;;5053548;28;20468;-71
2021/05/12 01:00:37;;;;;;;4.20;1.88;;;14.40;99.90;;;;;;5053712;28;20379;-72
2021/05/12 01:03:02;;;;;;;5.70;2.20;;;14.40;99.90;;;;;;5052215;28;20071;-72
2021/05/12 01:05:34;;;;;;;4.00;1.95;;;14.40;99.90;;;;;;5053475;28;20475;-72
2021/05/12 01:08:04;;;;;;;5.00;1.80;;;14.40;99.90;;;;;;5053664;28;20025;-72
2021/05/12 01:10:31;;;;;;;;;;;14.30;99.90;;;;;;5053850;28;20025;-72
2021/05/12 01:12:57;;;;;;;4.05;1.77;;;14.30;99.90;;;;;;5051841;28;19951;-71
2021/05/12 01:15:22;;;;;;;3.10;1.30;;;14.30;99.90;;;;;;5053435;28;20067;-72
2021/05/12 01:17:48;;;;;;;3.25;1.80;;;14.30;99.90;;;;;;5053331;28;20512;-72
2021/05/12 01:20:14;;;;;;;3.75;1.83;;;14.30;99.90;;;;;;5053256;28;20021;-72
2021/05/12 01:22:40;;;;;;;3.92;1.83;;;14.30;99.90;;;;;;5053122;28;20079;-71
2021/05/12 01:25:07;;;;;;;4.50;1.80;;;14.30;99.90;;;;;;5053127;28;20442;-71
2021/05/12 01:27:33;;;;;;;5.15;2.28;;;14.30;99.90;;;;;;5053266;28;20495;-72
2021/05/12 01:29:58;;;;;;;4.18;2.05;;;14.40;99.90;;;;;;5052998;28;20040;-71
2021/05/12 01:32:34;;;;;;;4.00;2.17;;;14.40;99.90;;;;;;5053055;28;20494;-72
2021/05/12 01:35:08;;;;;;;3.00;1.63;;;14.30;99.90;;;;;;5052972;28;20104;-71
2021/05/12 01:37:35;;;;;;;3.88;1.90;;;14.30;99.90;;;;;;5051769;28;20117;-72
2021/05/12 01:40:04;;;;;;;3.63;2.10;;;14.20;99.90;;;;;;5052886;28;20056;-71
2021/05/12 01:42:30;;;;;;;5.45;2.45;;;14.20;99.90;;;;;;5052627;28;20108;-71
2021/05/12 01:45:11;;;;;;;3.90;2.05;;;14.20;99.90;;;;;;5052841;28;20109;-72
2021/05/12 01:47:37;;;;;;;4.47;2.10;;;14.20;99.90;;;;;;5052900;28;20021;-72
2021/05/12 01:50:05;;;;;;;4.03;1.90;;;14.20;99.90;;;;;;5052723;28;20090;-71
2021/05/12 01:52:39;;;;;;;3.90;2.08;;;14.20;99.90;;;;;;5051183;28;20031;-71
2021/05/12 01:55:07;;;;;;;7.53;2.33;;;14.10;99.90;;;;;;5052756;28;20071;-72
2021/05/12 01:57:33;;;;;;;5.97;1.98;;;14.20;99.90;;;;;;5051573;28;20568;-72
2021/05/12 01:59:59;;;;;;;3.40;2.03;;;14.10;99.90;;;;;;5052559;28;20032;-72
2021/05/12 02:02:25;;;;;;;3.53;1.85;;;14.10;99.90;;;;;;5052326;28;20086;-72
2021/05/12 02:04:50;;;;;;;3.35;1.65;;;14.20;99.90;;;;;;5052348;28;20025;-72
2021/05/12 02:07:16;;;;;;;3.22;1.80;;;14.10;99.90;;;;;;5052511;28;20021;-72
2021/05/12 02:09:47;;;;;;;2.70;1.45;;;14.00;99.90;;;;;;5051856;28;20496;-72
2021/05/12 02:12:13;;;;;;;5.15;1.85;;;14.10;99.90;;;;;;5051029;28;20029;-71
2021/05/12 02:14:39;;;;;;;3.22;1.27;;;14.20;99.90;;;;;;5052373;28;20096;-71
2021/05/12 02:17:04;;;;;;;3.30;1.80;;;14.10;99.90;;;;;;5050984;28;20407;-71
2021/05/12 02:19:30;;;;;;;2.70;1.50;;;14.10;99.90;;;;;;5052189;28;20040;-72
2021/05/12 02:21:55;;;;;;;4.05;1.80;;;14.10;99.90;;;;;;5050973;28;20021;-71
2021/05/12 02:24:21;;;;;;;3.25;1.55;;;14.10;99.90;;;;;;5052146;28;20538;-72
2021/05/12 02:26:47;;;;;;;3.17;1.70;;;14.10;99.90;;;;;;5052195;28;20032;-72
2021/05/12 02:29:12;;;;;;;2.70;1.60;;;14.10;99.90;;;;;;5049389;28;20033;-71
2021/05/12 02:31:38;;;;;;;3.00;1.73;;;14.10;99.90;;;;;;5051973;28;20042;-72
2021/05/12 02:34:04;;;;;;;3.17;1.50;;;14.10;99.90;;;;;;5050881;28;20021;-72
2021/05/12 02:36:29;;;;;;;4.55;1.80;;;14.10;99.90;;;;;;5051990;28;20024;-72
2021/05/12 02:38:55;;;;;;;3.00;1.85;;;14.10;99.90;;;;;;5050582;28;20056;-71
2021/05/12 02:41:21;;;;;;;3.05;1.67;;;14.00;99.90;;;;;;5051635;28;20082;-72
2021/05/12 02:43:46;;;;;;;4.38;1.80;;;14.10;99.90;;;;;;5051614;28;20029;-72
2021/05/12 02:46:12;;;;;;;2.45;1.30;;;14.00;99.90;;;;;;5051986;28;20514;-71
2021/05/12 02:48:38;;;;;;;3.72;1.45;;;14.00;99.90;;;;;;5051592;28;20392;-71
2021/05/12 02:51:03;;;;;;;3.22;1.48;;;13.90;99.90;;;;;;5051541;28;20036;-72
2021/05/12 02:53:29;;;;;;;4.00;2.10;;;14.00;99.90;;;;;;5051304;28;20025;-72
2021/05/12 02:55:54;;;;;;;3.15;1.67;;;14.00;99.90;;;;;;5051642;28;20074;-72
2021/05/12 02:58:20;;;;;;;3.20;1.83;;;14.00;99.90;;;;;;5051403;28;20036;-72
2021/05/12 03:00:46;;;;;;;3.65;1.83;;;14.00;99.90;;;;;;5051336;28;20021;-71
2021/05/12 03:03:12;;;;;;;5.97;2.05;;;14.00;99.90;;;;;;5050980;28;20029;-70
2021/05/12 03:05:39;;;;;;;3.47;1.90;;;14.00;99.90;;;;;;5051454;28;20071;-72
2021/05/12 03:08:05;;;;;;;3.15;1.83;;;14.00;99.90;;;;;;5051489;28;20043;-72
2021/05/12 03:10:34;;;;;;;3.88;2.05;;;14.00;99.90;;;;;;5051407;28;20016;-72
2021/05/12 03:13:00;;;;;;;3.92;2.10;;;14.00;99.90;;;;;;5050965;28;20017;-71
2021/05/12 03:15:27;;;;;;;4.03;1.90;;;14.00;99.90;;;;;;5051226;28;20107;-71
2021/05/12 03:17:55;;;;;;;3.95;2.05;;;14.00;99.90;;;;;;5051127;28;20052;-71
2021/05/12 03:20:22;;;;;;;5.00;2.63;;;14.00;99.90;;;;;;5050286;28;20103;-71
2021/05/12 03:22:48;;;;;;;5.00;2.35;;;13.90;99.90;;;;;;5050811;28;20056;-71
2021/05/12 03:25:14;;;;;;;5.70;2.55;;;13.90;99.90;;;;;;5050903;28;20029;-72
2021/05/12 03:27:40;;;;;;;4.53;2.33;;;13.90;99.90;;;;;;5051308;28;20494;-70
2021/05/12 03:30:10;;;;;;;4.75;2.70;;;13.90;99.90;;;;;;5050800;28;20067;-71
2021/05/12 03:32:36;;;;;;;4.25;2.30;;;14.00;99.90;;;;;;5050637;28;20100;-72
2021/05/12 03:35:02;;;;;;;5.28;2.50;;;14.00;99.90;;;;;;5050977;28;20064;-72
2021/05/12 03:37:27;;;;;;;6.05;2.67;;;14.00;99.90;;;;;;5050894;28;20029;-72
2021/05/12 03:39:53;;;;;;;5.50;2.90;;;14.00;99.90;;;;;;5051269;28;20056;-72
2021/05/12 03:42:18;;;;;;;6.55;2.90;;;14.00;99.90;;;;;;5049253;28;20021;-71
2021/05/12 03:44:44;;;;;;;6.68;2.92;;;14.00;99.90;;;;;;5050779;28;20086;-71
2021/05/12 03:47:09;;;;;;;6.53;3.40;;;13.90;99.90;;;;;;5050724;28;20078;-71
2021/05/12 03:49:35;;;;;;;8.90;4.10;;;13.90;99.90;;;;;;5050730;28;20391;-72
2021/05/12 03:52:01;;;;;;;7.22;3.58;;;13.90;99.90;;;;;;5050520;28;20023;-72
2021/05/12 03:54:26;;;;;;;6.05;3.55;;;13.90;99.90;;;;;;5050641;28;20033;-72
2021/05/12 03:56:53;;;;;;;7.00;3.60;;;14.00;99.90;;;;;;5050758;28;20025;-72
2021/05/12 03:59:19;;;;;;;5.40;3.45;;;14.00;99.90;;;;;;5050573;28;20025;-71
2021/05/12 04:01:44;;;;;;;6.93;4.80;;;14.00;99.90;;;;;;5049012;28;20032;-71
2021/05/12 04:04:13;;;;;;;8.60;4.85;;;14.00;99.90;;;;;;5050556;28;20039;-72
2021/05/12 04:06:41;;;;;;;7.43;4.57;;;14.10;99.90;;;;;;5050572;28;20017;-71
2021/05/12 04:09:06;;;;;;;7.35;4.63;;;14.10;99.90;;;;;;5050513;28;20411;-72
2021/05/12 04:11:32;;;;;;;7.53;4.80;;;14.20;99.90;;;;;;5050391;28;20029;-71
2021/05/12 04:13:57;;;;;;;7.85;4.97;;;14.20;99.90;;;;;;5050950;28;20029;-72
2021/05/12 04:16:23;;;;;;;8.32;5.10;;;14.20;99.90;;;;;;5049410;28;20085;-71
2021/05/12 04:18:48;;;;;;;7.13;4.78;;;14.20;99.90;;;;;;5050686;28;20043;-72
2021/05/12 04:21:14;;;;;;;7.00;4.75;;;14.20;99.90;;;;;;5050148;28;20154;-70
2021/05/12 04:23:39;;;;;;;9.70;5.38;;;14.20;99.90;;;;;;5050435;28;20017;-71
2021/05/12 04:26:05;;;;;;;9.73;5.40;;;14.20;99.90;;;;;;5050586;28;20021;-72
2021/05/12 04:28:31;;;;;;;7.40;5.13;;;14.20;99.90;;;;;;5047559;28;20025;-72
2021/05/12 04:30:56;;;;;;;9.18;5.82;;;14.20;99.90;;;;;;5040169;28;20056;-71
2021/05/12 04:33:22;;;;;;;10.75;5.70;;;14.20;99.90;;;;;;5042662;28;20493;-70
2021/05/12 04:35:47;;;;;;;11.00;6.35;;;14.20;99.90;;;;;;5042855;28;20477;-72
2021/05/12 04:38:13;;;;;;;9.32;6.55;;;14.20;99.90;;;;;;5045409;28;20028;-72
2021/05/12 04:40:38;;;;;;;8.73;6.07;;;14.30;99.90;;;;;;5051267;28;20078;-73
2021/05/12 04:43:04;;;;;;;10.98;6.53;;;14.30;99.90;;;;;;5053348;28;20067;-72
2021/05/12 04:45:29;;;;;;;11.80;7.60;;;14.30;99.90;;;;;;5053980;28;20404;-73
2021/05/12 04:47:55;;;;;;;11.90;7.93;;;14.30;99.90;;;;;;5043641;28;20048;-73
2021/05/12 04:50:24;;;;;;;13.27;9.20;;;14.30;99.90;;;;;;5053953;28;20388;-74
2021/05/12 04:52:50;;;;;;;11.65;8.40;;;14.40;99.90;;;;;;5053603;28;20104;-74
2021/05/12 04:55:15;;;;;;;13.45;9.75;;;14.60;99.90;;;;;;5053880;28;20104;-74
2021/05/12 04:57:41;;;;;;;14.75;10.05;;;14.60;99.90;;;;;;5044870;28;20034;-73
2021/05/12 05:00:08;;;;;;;13.70;9.70;;;14.70;99.90;;;;;;5046215;28;20035;-72
2021/05/12 05:02:33;;;;;;;17.45;10.90;;;14.80;99.90;;;;;;5053757;28;20075;-73
2021/05/12 05:04:59;;;;;;;13.40;10.15;;;14.70;99.90;;;;;;5053639;28;20500;-72
2021/05/12 05:07:24;;;;;;;17.30;11.77;;;14.70;99.90;;;;;;5053106;28;20024;-73
2021/05/12 05:09:50;;;;;;;14.48;11.10;;;14.70;99.90;;;;;;5053551;28;20100;-72
2021/05/12 05:12:15;;;;;;;16.05;11.45;;;14.70;99.90;;;;;;5053175;28;20132;-72
2021/05/12 05:14:41;;;;;;;17.65;12.60;;;14.80;99.90;;;;;;5051792;28;20017;-72
2021/05/12 05:17:06;;;;;;;16.48;11.82;;;14.80;99.90;;;;;;5053167;28;20111;-71
2021/05/12 05:19:32;;;;;;;14.40;11.48;;;14.60;99.90;;;;;;5053367;28;20112;-73
2021/05/12 05:21:59;;;;;;;18.08;12.90;;;14.70;99.90;;;;;;5051743;28;20025;-72
2021/05/12 05:24:25;;;;;;;16.10;11.82;;;14.70;99.90;;;;;;5051892;28;20060;-73
2021/05/12 05:26:50;;;;;;;17.27;13.25;;;14.70;99.90;;;;;;5051939;28;20049;-72
2021/05/12 05:29:16;;;;;;;17.13;13.15;;;14.80;99.90;;;;;;5051590;28;20219;-72
2021/05/12 05:31:41;;;;;;;18.35;12.90;;;14.60;99.90;;;;;;5052871;28;20391;-73
2021/05/12 05:34:07;;;;;;;18.60;12.98;;;14.60;99.90;;;;;;5053107;28;20024;-73
2021/05/12 05:36:32;;;;;;;19.08;13.73;;;14.60;99.90;;;;;;5051736;28;20033;-73
2021/05/12 05:38:58;;;;;;;18.23;13.45;;;14.70;99.90;;;;;;5052977;28;20037;-73
2021/05/12 05:41:23;;;;;;;18.25;13.10;;;14.80;99.90;;;;;;5052663;28;20054;-73
2021/05/12 05:43:49;;;;;;;18.77;12.75;;;14.90;99.90;;;;;;5051846;28;20432;-72
2021/05/12 05:46:15;;;;;;;18.65;13.45;;;14.70;99.90;;;;;;5052899;28;20021;-72
2021/05/12 05:48:40;;;;;;;20.65;13.82;;;14.70;99.90;;;;;;5052797;28;20052;-73
2021/05/12 05:51:06;;;;;;;18.27;13.40;;;14.70;99.90;;;;;;5052652;28;20025;-73
2021/05/12 05:53:31;;;;;;;18.73;12.55;;;14.90;99.90;;;;;;5052617;28;20096;-73
2021/05/12 05:55:57;;;;;;;15.52;11.43;;;14.90;99.90;;;;;;5051447;28;20080;-75
2021/05/12 05:58:22;;;;;;;14.95;11.27;;;14.90;99.90;;;;;;5052830;28;20052;-74
2021/05/12 06:00:48;;;;;;;16.85;11.85;;;14.90;99.90;;;;;;5052577;28;20021;-73
2021/05/12 06:03:13;;;;;;;13.85;9.85;;;14.90;99.90;;;;;;5052361;28;20092;-74
2021/05/12 06:05:45;;;;;;;15.18;10.68;;;15.00;99.90;;;;;;5052411;28;20036;-73
2021/05/12 06:08:11;;;;;;;11.55;7.90;;;14.90;99.90;;;;;;5051295;28;20032;-74
2021/05/12 06:10:36;;;;;;;12.68;8.63;;;14.90;99.90;;;;;;5052597;28;20025;-74
2021/05/12 06:13:02;;;;;;;11.60;7.80;;;15.00;99.90;;;;;;5044473;28;20018;-73
2021/05/12 06:15:27;;;;;;;11.10;8.10;;;15.00;99.90;;;;;;5034145;28;20028;-74
2021/05/12 06:17:53;;;;;;;11.15;6.70;;;15.00;99.90;;;;;;5031183;28;20556;-73
2021/05/12 06:20:19;;;;;;;9.30;5.50;;;15.10;99.90;;;;;;5032371;28;20025;-71
2021/05/12 06:22:44;;;;;;;8.68;5.70;;;15.00;99.90;;;;;;5030870;28;20032;-71
2021/05/12 06:25:12;;;;;;;9.85;5.93;;;15.00;99.90;;;;;;5032150;28;20119;-72
2021/05/12 06:27:38;;;;;;;8.27;5.28;;;15.00;99.90;;;;;;5032271;28;20022;-71
2021/05/12 06:30:07;;;;;;;8.48;5.60;;;14.80;99.90;;;;;;5031930;28;20034;-72
2021/05/12 06:32:33;;;;;;;9.93;5.80;;;14.60;99.90;;;;;;5031957;28;20052;-72
2021/05/12 06:34:59;;;;;;;10.52;6.47;;;14.50;99.90;;;;;;5030715;28;20056;-72
2021/05/12 06:37:24;;;;;;;9.27;5.90;;;14.40;99.90;;;;;;5032010;28;20029;-72
2021/05/12 06:39:50;;;;;;;9.88;4.95;;;14.40;99.90;;;;;;5045324;28;20391;-72
2021/05/12 06:42:17;;;;;;;8.50;4.43;;;14.30;99.90;;;;;;5051264;28;20021;-72
2021/05/12 06:44:42;;;;;;;8.25;4.85;;;14.20;99.90;;;;;;5049397;28;20112;-73
2021/05/12 06:47:08;;;;;;;9.43;5.40;;;14.30;99.90;;;;;;5050465;28;20462;-72
2021/05/12 06:49:34;;;;;;;7.70;4.50;;;14.50;99.90;;;;;;5051634;28;20021;-70
2021/05/12 06:51:59;;;;;;;8.70;4.47;;;14.60;99.90;;;;;;5051314;28;20072;-71
2021/05/12 06:54:25;;;;;;;6.55;4.00;;;14.50;99.90;;;;;;5050195;28;20020;-71
2021/05/12 06:56:50;;;;;;;8.00;4.57;;;14.50;99.90;;;;;;5051548;28;20504;-71
2021/05/12 06:59:16;;;;;;;9.05;4.10;;;14.70;99.90;;;;;;5051433;28;20033;-73
2021/05/12 07:01:41;;;;;;;6.03;3.70;;;14.80;99.90;;;;;;5045445;28;20040;-71
2021/05/12 07:04:07;;;;;;;6.60;3.80;;;14.90;99.90;;;;;;5038924;28;20403;-71
2021/05/12 07:06:32;;;;;;;6.60;3.65;;;14.70;99.90;;;;;;5043009;28;20543;-70
2021/05/12 07:08:58;;;;;;;5.90;3.33;;;14.70;99.90;;;;;;5037098;28;20030;-72
2021/05/12 07:11:23;;;;;;;7.35;3.70;;;14.80;99.90;;;;;;5030993;28;20017;-71
2021/05/12 07:13:52;;;;;;;7.45;4.40;;;14.60;99.90;;;;;;5029976;28;20029;-71
2021/05/12 07:16:18;;;;;;;7.28;4.28;;;14.50;99.90;;;;;;5031188;28;20026;-70
2021/05/12 07:18:43;;;;;;;8.82;4.78;;;14.50;99.90;;;;;;5031121;28;20387;-69
2021/05/12 07:21:09;;;;;;;9.25;4.90;;;14.20;99.90;;;;;;5031328;28;20034;-70
2021/05/12 07:23:34;;;;;;;10.93;4.32;;;14.20;99.90;;;;;;5031918;28;20033;-70
2021/05/12 07:26:02;;;;;;;7.25;4.35;;;14.30;99.90;;;;;;5033814;28;20021;-70
2021/05/12 07:28:27;;;;;;;10.02;5.50;;;14.30;99.90;;;;;;5032198;28;20383;-72
2021/05/12 07:30:53;;;;;;;7.88;4.40;;;14.00;99.90;;;;;;5030100;28;20116;-70
2021/05/12 07:33:18;;;;;;;7.97;4.82;;;14.00;99.90;;;;;;5029385;28;20060;-70
2021/05/12 07:35:44;;;;;;;9.95;5.47;;;14.10;99.90;;;;;;5031181;28;20100;-69
2021/05/12 07:38:10;;;;;;;7.68;4.70;;;14.00;99.90;;;;;;5031257;28;20021;-70
2021/05/12 07:40:36;;;;;;;9.65;5.10;;;13.90;99.90;;;;;;5030999;28;20484;-69
2021/05/12 07:43:06;;;;;;;8.25;4.80;;;14.10;99.90;;;;;;5030846;28;20028;-70
2021/05/12 07:45:32;;;;;;;8.05;5.07;;;14.10;99.90;;;;;;5031059;28;20021;-70
2021/05/12 07:47:58;;;;;;;9.38;6.07;;;14.20;99.90;;;;;;5030874;28;20444;-71
2021/05/12 07:50:24;;;;;;;10.30;5.40;;;14.20;99.90;;;;;;5030730;28;20018;-71
2021/05/12 07:52:51;;;;;;;9.40;5.82;;;14.20;99.90;;;;;;5030672;28;20025;-70
2021/05/12 07:55:16;;;;;;;9.93;5.93;;;14.10;99.90;;;;;;5030850;28;20292;-70
2021/05/12 07:57:42;;;;;;;10.43;6.07;;;14.20;99.90;;;;;;5030677;28;20040;-71
2021/05/12 08:00:09;;;;;;;9.90;6.00;;;14.40;99.90;;;;;;5035295;28;20029;-72
2021/05/12 08:02:35;;;;;;;11.43;6.30;;;14.60;99.90;;;;;;5048948;28;20052;-71
2021/05/12 08:05:00;;;;;;;9.65;5.60;;;14.60;99.90;;;;;;5050579;28;20492;-72
2021/05/12 08:07:26;;;;;;;9.40;5.85;;;14.60;99.90;;;;;;5053090;28;20026;-72
2021/05/12 08:09:51;;;;;;;9.38;6.03;;;14.90;99.90;;;;;;5053264;28;20368;-71
2021/05/12 08:12:17;;;;;;;9.85;5.85;;;15.00;99.90;;;;;;5052920;28;20434;-72
2021/05/12 08:14:43;;;;;;;10.63;5.88;;;14.80;99.90;;;;;;5054561;28;20021;-71
2021/05/12 08:17:08;;;;;;;10.60;6.20;;;15.00;99.90;;;;;;5054379;28;20492;-72
2021/05/12 08:19:34;;;;;;;10.30;6.28;;;15.00;99.90;;;;;;5053078;28;20021;-71
2021/05/12 08:22:08;;;;;;;10.73;6.00;;;15.00;99.90;;;;;;5054411;28;20084;-72
2021/05/12 08:24:33;;;;;;;11.25;6.55;;;15.00;99.90;;;;;;5053050;28;20032;-72
2021/05/12 08:27:04;;;;;;;11.65;7.20;;;15.10;99.90;;;;;;5054258;28;20090;-72
2021/05/12 08:29:30;;;;;;;10.13;7.25;;;14.90;99.90;;;;;;5052671;28;20094;-72
2021/05/12 08:31:57;;;;;;;10.35;6.97;;;14.90;99.90;;;;;;5053962;28;20045;-72
2021/05/12 08:34:23;;;;;;;11.13;7.10;;;14.90;99.90;;;;;;5054108;28;20061;-71
2021/05/12 08:36:48;;;;;;;11.00;7.15;;;15.00;99.90;;;;;;5048164;28;20049;-71
2021/05/12 08:39:14;;;;;;;11.05;7.38;;;15.10;99.90;;;;;;5042977;28;20365;-72
2021/05/12 08:41:41;;;;;;;13.25;6.95;;;15.20;99.90;;;;;;5033747;28;20076;-71
2021/05/12 08:44:10;;;;;;;11.30;7.07;;;15.00;99.90;;;;;;5033803;28;20022;-72
2021/05/12 08:46:38;;;;;;;10.52;6.88;;;15.00;99.90;;;;;;5039863;28;20028;-72
2021/05/12 08:49:04;;;;;;;12.52;7.75;;;15.10;99.90;;;;;;5043718;28;20029;-71
2021/05/12 08:51:29;;;;;;;12.02;8.10;;;14.40;99.90;;;;;;5044020;28;20017;-72
2021/05/12 08:53:57;;;;;;;13.40;8.45;;;14.40;99.90;;;;;;5042357;28;20140;-71
2021/05/12 08:56:22;;;;;;;11.20;7.53;;;14.70;99.90;;;;;;5043683;28;20025;-72
2021/05/12 08:58:49;;;;;;;11.05;7.53;;;14.90;99.90;;;;;;5043768;28;20036;-71
2021/05/12 09:01:16;;;;;;;11.50;8.10;;;15.00;99.90;;;;;;5042043;28;20104;-71
2021/05/12 09:03:44;;;;;;;11.07;7.35;;;15.10;99.90;;;;;;5044700;28;20028;-72
2021/05/12 09:06:10;;;;;;;12.43;8.20;;;14.90;99.90;;;;;;5050414;28;20387;-71
2021/05/12 09:08:36;;;;;;;11.77;8.18;;;14.70;99.90;;;;;;5053345;28;20103;-71
2021/05/12 09:11:02;;;;;;;12.45;8.43;;;15.00;99.90;;;;;;5048561;28;20132;-71
2021/05/12 09:13:30;;;;;;;11.35;8.65;;;15.20;99.90;;;;;;5050537;28;20116;-70
2021/05/12 09:16:18;;;;;;;14.75;10.07;;;14.70;99.90;;;;;;5053460;28;20087;-71
2021/05/12 09:18:44;;;;;;;14.43;8.30;;;14.50;99.90;;;;;;5052518;28;20029;-71
2021/05/12 09:21:09;;;;;;;12.07;8.75;;;14.70;99.90;;;;;;5053280;28;20078;-71
2021/05/12 09:23:39;;;;;;;13.77;9.50;;;14.80;99.90;;;;;;5052940;28;20029;-71
2021/05/12 09:26:11;;;;;;;14.02;10.60;;;14.80;99.90;;;;;;5053239;28;20017;-71
2021/05/12 09:28:37;;;;;;;13.13;9.18;;;14.70;99.90;;;;;;5053267;28;20021;-71
2021/05/12 09:31:06;;;;;;;14.98;10.82;;;14.80;99.90;;;;;;5052951;28;20044;-71
2021/05/12 09:33:36;;;;;;;17.05;10.55;;;14.80;99.90;;;;;;5051042;28;20033;-71
2021/05/12 09:36:02;;;;;;;15.73;9.70;;;15.00;99.90;;;;;;5052664;28;20022;-70
2021/05/12 09:38:29;;;;;;;14.43;10.02;;;15.00;99.90;;;;;;5052978;28;20102;-70
2021/05/12 09:41:13;;;;;;;13.57;9.27;;;14.90;99.90;;;;;;5053053;28;20029;-71
2021/05/12 09:43:49;;;;;;;13.80;9.98;;;14.90;99.90;;;;;;5053007;28;20048;-72
2021/05/12 09:46:32;;;;;;;14.63;9.07;;;14.90;99.90;;;;;;5051759;28;20523;-72
2021/05/12 09:48:58;;;;;;;14.68;10.10;;;14.90;99.90;;;;;;5050384;28;20074;-72
2021/05/12 09:51:24;;;;;;;13.55;9.52;;;15.00;99.90;;;;;;5051247;28;20116;-71
2021/05/12 09:54:08;;;;;;;12.68;8.77;;;14.80;99.90;;;;;;5052794;28;20032;-71
2021/05/12 09:56:38;;;;;;;16.55;10.30;;;14.70;99.90;;;;;;5052738;28;20488;-71
2021/05/12 09:59:16;;;;;;;14.75;9.63;;;14.70;99.90;;;;;;5052236;28;20021;-75
2021/05/12 10:01:44;;;;;;;15.10;9.73;;;14.70;99.90;;;;;;5052075;28;20434;-71
2021/05/12 10:04:42;;;;;;;16.02;10.95;;;14.70;99.90;;;;;;5051764;28;20118;-71
2021/05/12 10:07:16;;;;;;;12.80;9.15;;;14.80;99.90;;;;;;4990943;28;20372;-71
2021/05/12 10:09:44;;;;;;;14.15;9.93;;;14.70;99.90;;;;;;4990802;28;20029;-71
2021/05/12 10:12:17;;;;;;;13.00;8.75;;;14.90;99.90;;;;;;4974198;28;20407;-72
2021/05/12 10:14:48;;;;;;;12.40;8.70;;;15.00;99.90;;;;;;4990782;28;20121;-71
2021/05/12 10:17:15;;;;;;;12.60;8.38;;;15.10;99.90;;;;;;4990630;28;20037;-71
2021/05/12 10:19:43;;;;;;;16.83;10.65;;;15.00;99.90;;;;;;4990640;28;20080;-71
2021/05/12 10:22:10;;;;;;;13.73;9.10;;;14.90;99.90;;;;;;4989891;28;20030;-71
2021/05/12 10:24:38;;;;;;;14.43;9.77;;;14.90;99.90;;;;;;4990272;28;20117;-72
2021/05/12 10:27:13;;;;;;;13.55;9.00;;;14.60;99.90;;;;;;4990344;28;20448;-72
2021/05/12 10:29:42;;;;;;;14.07;9.07;;;14.60;99.90;;;;;;4986482;28;20034;-71
2021/05/12 10:32:15;;;;;;;14.05;9.27;;;14.60;99.90;;;;;;4973152;28;20100;-72
2021/05/12 10:34:40;;;;;;;13.77;9.07;;;14.40;99.90;;;;;;4988873;28;20030;-72
2021/05/12 10:37:24;;;;;;;13.13;9.25;;;14.40;99.90;;;;;;4989146;28;20177;-71
2021/05/12 10:40:04;;;;;;;12.85;8.60;;;14.50;99.90;;;;;;4983722;28;20113;-72
2021/05/12 10:43:08;;;;;;;16.67;10.35;;;14.30;99.90;;;;;;4986882;28;20547;-71
2021/05/12 10:45:36;;;;;;;14.00;10.25;;;14.20;99.90;;;;;;5039319;28;20028;-72
2021/05/12 10:48:02;;;;;;;16.27;11.13;;;14.30;99.90;;;;;;5051804;28;20025;-72
2021/05/12 10:50:48;;;;;;;14.40;10.48;;;14.30;99.90;;;;;;5051593;28;20052;-72
2021/05/12 10:53:17;;;;;;;15.07;11.07;;;14.20;99.90;;;;;;5081366;22;20432;-71
2021/05/12 10:55:55;;;;;;;17.20;9.77;;;14.30;99.90;;;;;;5011913;28;20105;-71
2021/05/12 10:58:21;;;;;;;15.02;10.07;;;14.40;99.90;;;;;;5010482;28;20033;-71
2021/05/12 11:00:55;;;;;;;12.55;9.43;;;14.40;99.90;;;;;;5010283;28;20033;-71
2021/05/12 11:03:20;;;;;;;15.63;10.52;;;14.50;99.90;;;;;;4999539;28;20033;-71
2021/05/12 11:05:52;;;;;;;17.25;10.40;;;14.50;99.90;;;;;;5011668;28;20037;-71
2021/05/12 11:08:21;;;;;;;15.77;10.35;;;14.60;99.90;;;;;;5011865;28;20076;-71
2021/05/12 11:11:01;;;;;;;15.32;10.65;;;14.40;99.90;;;;;;5011686;28;20029;-71
2021/05/12 11:13:29;;;;;;;16.92;11.73;;;14.30;99.90;;;;;;5011432;28;20025;-70
2021/05/12 11:15:57;;;;;;;15.60;11.63;;;14.10;99.90;;;;;;5010392;28;20038;-71
2021/05/12 11:18:37;;;;;;;18.23;12.07;;;14.10;99.90;;;;;;5011550;28;20369;-72
2021/05/12 11:21:19;;;;;;;14.63;9.88;;;14.30;99.90;;;;;;5011493;28;20034;-71
2021/05/12 11:24:07;;;;;;;14.18;10.13;;;14.30;99.90;;;;;;5010172;28;20034;-71
2021/05/12 11:31:09;;;;;;;13.40;9.82;;;14.10;99.90;;;;;;5011999;28;20026;-71
2021/05/12 11:32:09;;;;;;;14.18;10.13;;;14.20;99.90;;;;;;5011292;28;20033;-71
2021/05/12 11:34:36;;;;;;;13.38;9.32;;;14.00;99.90;;;;;;5010377;28;20018;-71
2021/05/12 11:37:16;;;;;;;11.48;8.13;;;14.10;99.90;;;;;;5011608;28;20033;-71
2021/05/12 11:39:44;;;;;;;12.88;9.00;;;14.30;99.90;;;;;;5011662;28;20075;-71
2021/05/12 11:42:22;;;;;;;13.68;9.18;;;14.20;99.90;;;;;;5010609;28;20026;-72
2021/05/12 11:44:49;;;;;;;12.15;8.20;;;14.40;99.90;;;;;;5010210;28;20033;-73
2021/05/12 11:47:31;;;;;;;12.73;8.70;;;14.50;99.90;;;;;;5011642;28;20118;-71
2021/05/12 11:49:57;;;;;;;12.23;8.57;;;14.30;99.90;;;;;;5011619;28;20022;-71
2021/05/12 11:52:27;;;;;;;13.00;9.23;;;14.30;99.90;;;;;;5011271;28;20033;-71
2021/05/12 11:54:53;;;;;;;11.07;7.50;;;14.40;99.90;;;;;;5011403;28;20068;-71
2021/05/12 11:57:19;;;;;;;12.77;8.20;;;14.60;99.90;;;;;;5011497;28;20073;-71
2021/05/12 11:59:44;;;;;;;10.68;7.75;;;14.60;99.90;;;;;;5010168;28;20057;-74
2021/05/12 12:02:12;;;;;;;10.70;7.40;;;14.50;99.90;;;;;;4991674;28;20037;-71
2021/05/12 12:04:58;;;;;;;9.73;6.97;;;14.60;99.90;;;;;;4991446;28;20109;-71
2021/05/12 12:07:24;;;;;;;12.73;7.30;;;14.60;99.90;;;;;;4991639;28;20015;-71
2021/05/12 12:10:08;;;;;;;10.52;6.35;;;14.70;99.90;;;;;;4991584;28;20029;-71
2021/05/12 12:12:35;;;;;;;9.75;7.35;;;14.70;99.90;;;;;;4990018;28;20385;-70
2021/05/12 12:15:10;;;;;;;11.15;7.22;;;14.60;99.90;;;;;;4991524;28;20027;-71
2021/05/12 12:17:35;;;;;;;10.48;6.93;;;14.50;99.90;;;;;;4991445;28;20032;-71
2021/05/12 12:20:06;;;;;;;11.25;6.78;;;14.60;99.90;;;;;;4990052;28;20028;-70
2021/05/12 12:22:32;;;;;;;11.15;7.20;;;14.80;99.90;;;;;;4990955;28;20370;-70
2021/05/12 12:25:18;;;;;;;11.35;7.70;;;14.70;99.90;;;;;;4989738;28;20030;-70
2021/05/12 12:27:45;;;;;;;9.43;6.45;;;14.70;99.90;;;;;;4989803;28;20385;-70
2021/05/12 12:30:15;;;;;;;9.73;6.35;;;14.60;99.90;;;;;;4990134;28;20539;-70
2021/05/12 12:32:41;;;;;;;8.90;5.55;;;14.60;99.90;;;;;;4991037;28;20026;-70
2021/05/12 12:35:07;;;;;;;9.75;6.70;;;14.60;99.90;;;;;;4991212;28;20042;-70
2021/05/12 12:37:35;;;;;;;10.63;6.43;;;14.40;99.90;;;;;;4991087;28;20029;-70
2021/05/12 12:40:08;;;;;;;10.23;5.68;;;14.40;99.90;;;;;;4989749;28;20030;-71
2021/05/12 12:42:43;;;;;;;9.93;6.75;;;14.20;99.90;;;;;;4990769;28;20057;-70
2021/05/12 12:45:15;;;;;;;12.00;7.95;;;14.00;99.90;;;;;;4989818;28;20113;-71
2021/05/12 12:47:40;;;;;;;11.15;6.32;;;14.00;99.90;;;;;;4990960;28;20019;-70